Freeman, SD

12:35 AM CDT on August 02, 2014 (GMT -0500)
KSDFREEM4 Elev 1440 ft | 43.43 °N, 97.48 °W | Change Station

Current weather conditions updated 9 seconds ago

Clear
Clear
67.9 °F
Feels Like 67.9 °F
N
7.0
Wind Variable Wind from South
Gusts 14.0 mph

Today is forecast to be Warmer than yesterday. Scattered thunderstorms possible tonight.

Today
High -- | Low -- °F
--% Chance of Precip.
Yesterday
High -- | Low -- °F
Precip. -- in
6:20 AM 8:50 PM
Waxing Crescent, 32% visible
Pressure 30.11 in
Visibility 9.0 miles
Clouds Clear
Dew Point 58 °F
Humidity 71%
Rainfall 0.00 in
Snow Depth Not available.
UV 0 out of 12
Pollen 6.80 out of 12
Air Quality Not available.
Flu Activity Not available.
METAR KYKN 020455Z AUTO 10003KT 9SM CLR 18/16 A3011 RMK AO1

More Conditions Fewer Conditions

Pressure 30.11 in
Visibility 9.0 miles
Clouds Clear
Dew Point 58 °F
Humidity 71%
Rainfall 0.00 in
Snow Depth Not available.
UV 0 out of 12
Pollen 6.80 out of 12
Air Quality Not available.
Flu Activity Not available.
METAR KYKN 020455Z AUTO 10003KT 9SM CLR 18/16 A3011 RMK AO1

More Conditions Fewer Conditions

10-Day Weather Forecast

Almanac

Astronomy

Aug. 02, 2014 Rise Set
Actual Time 6:20 AM CDT 8:50 PM CDT
Civil Twilight 5:48 AM CDT 9:22 PM CDT
Nautical Twilight 5:07 AM CDT 10:02 PM CDT
Astronomical Twilight 4:22 AM CDT 10:48 PM CDT
Moon 12:56 PM CDT 11:56 PM CDT
Length of Visible Light 15h 34m
Length of Day
14h 29m
Tomorrow will be 2m 19s shorter.
Waxing Crescent, 32% of the Moon is Illuminated
Today
Waxing Crescent
Aug 3
First Quarter
Aug 10
Full
Aug 17
Last Quarter
Aug 25
New

Today's Extremes

State Highs State Lows

Community

WunderPhotos

Upload Photos

1,739,825 photos uploaded!

Nearby

Snow Depth

Station Depth Elevation
Blind Park 0 in 6890 ft

Earthquake Activity

City Distance Mag. Time & Date
No recent earthquake activity has been reported nearby.
Minimum magnitude displayed is 2.5.

Coastal Water Temperatures

Place Temperature
No Stations Reporting

Nearby Weather Stations

Station Location Temp. Dew Point Humidity Wind Precip. Elev Updated Type
FREEMAN, SD 67.9 °F 58 °F 71% South  at  7.0 mph 0.00 in / hr 1440 ft 12:35 AM CDT Normal
Turkey Ridge, Freeman, SD 67.9 °F 58 °F 72% SE  at  9.0 mph 0.00 in / hr 1644 ft 12:30 AM CDT Normal
Parker, SD 64.9 °F 52 °F 64% ENE  at  0.0 mph 0.00 in / hr 1408 ft 12:35 AM CDT Rapid Fire
Scotland, SD, Scotland, SD 66.8 °F 60 °F 79% WSW  at  0.0 mph 0.00 in / hr 1362 ft 12:31 AM CDT Normal

Show More Stations Show Fewer Stations